地図

経路データ

SID SEASON NUMBER BASIN SUBBASIN NAME ISO_TIME NATURE LAT LON WMO_WIND WMO_PRES WMO_AGENCY TRACK_TYPE DIST2LAND LANDFALL IFLAG USA_AGENCY USA_ATCF_ID USA_LAT USA_LON USA_RECORD USA_STATUS USA_WIND USA_PRES USA_SSHS USA_R34_NE USA_R34_SE USA_R34_SW USA_R34_NW USA_R50_NE USA_R50_SE USA_R50_SW USA_R50_NW USA_R64_NE USA_R64_SE USA_R64_SW USA_R64_NW USA_POCI USA_ROCI USA_RMW USA_EYE TOKYO_LAT TOKYO_LON TOKYO_GRADE TOKYO_WIND TOKYO_PRES TOKYO_R50_DIR TOKYO_R50_LONG TOKYO_R50_SHORT TOKYO_R30_DIR TOKYO_R30_LONG TOKYO_R30_SHORT TOKYO_LAND CMA_LAT CMA_LON CMA_CAT CMA_WIND CMA_PRES HKO_LAT HKO_LON HKO_CAT HKO_WIND HKO_PRES NEWDELHI_LAT NEWDELHI_LON NEWDELHI_GRADE NEWDELHI_WIND NEWDELHI_PRES NEWDELHI_CI NEWDELHI_DP NEWDELHI_POCI REUNION_LAT REUNION_LON REUNION_TYPE REUNION_WIND REUNION_PRES REUNION_TNUM REUNION_CI REUNION_RMW REUNION_R34_NE REUNION_R34_SE REUNION_R34_SW REUNION_R34_NW REUNION_R50_NE REUNION_R50_SE REUNION_R50_SW REUNION_R50_NW REUNION_R64_NE REUNION_R64_SE REUNION_R64_SW REUNION_R64_NW BOM_LAT BOM_LON BOM_TYPE BOM_WIND BOM_PRES BOM_TNUM BOM_CI BOM_RMW BOM_R34_NE BOM_R34_SE BOM_R34_SW BOM_R34_NW BOM_R50_NE BOM_R50_SE BOM_R50_SW BOM_R50_NW BOM_R64_NE BOM_R64_SE BOM_R64_SW BOM_R64_NW BOM_ROCI BOM_POCI BOM_EYE BOM_POS_METHOD BOM_PRES_METHOD NADI_LAT NADI_LON NADI_CAT NADI_WIND NADI_PRES WELLINGTON_LAT WELLINGTON_LON WELLINGTON_WIND WELLINGTON_PRES DS824_LAT DS824_LON DS824_STAGE DS824_WIND DS824_PRES TD9636_LAT TD9636_LON TD9636_STAGE TD9636_WIND TD9636_PRES TD9635_LAT TD9635_LON TD9635_WIND TD9635_PRES TD9635_ROCI NEUMANN_LAT NEUMANN_LON NEUMANN_CLASS NEUMANN_WIND NEUMANN_PRES MLC_LAT MLC_LON MLC_CLASS MLC_WIND MLC_PRES USA_GUST BOM_GUST BOM_GUST_PER REUNION_GUST REUNION_GUST_PER USA_SEAHGT USA_SEARAD_NE USA_SEARAD_SE USA_SEARAD_SW USA_SEARAD_NW STORM_SPEED STORM_DIR
1972224N10244 1972 71 EP MM DIANA 1972-08-11 00:00:00 TS 10.4000 -115.600 40 hurdat_epa main 1518 1514 O________OO___ hurdat_epa EP041972 10.4000 -115.600 TS 40 0 10.4000 -115.600 TC 40 10.4000 -115.600 2 11 293
1972224N10244 1972 71 EP MM DIANA 1972-08-11 03:00:00 TS 10.6035 -116.094 main 1521 1515 P________PP___ EP041972 10.6102 -116.095 TS 40 0 10.6102 -116.095 TC 40 10.5769 -116.089 2 11 292
1972224N10244 1972 71 EP MM DIANA 1972-08-11 06:00:00 TS 10.7906 -116.598 40 hurdat_epa main 1524 1524 O________OP___ hurdat_epa EP041972 10.8000 -116.600 TS 40 0 10.8000 -116.600 TC 40 10.7528 -116.592 2 11 289
1972224N10244 1972 71 EP MM DIANA 1972-08-11 09:00:00 TS 10.9514 -117.127 main 1530 1530 P________PP___ EP041972 10.9574 -117.128 TS 40 0 10.9574 -117.128 TC 40 10.9273 -117.124 2 11 286
1972224N10244 1972 71 EP MM DIANA 1972-08-11 12:00:00 TS 11.1000 -117.700 40 hurdat_epa main 1552 1552 O________OO___ hurdat_epa EP041972 11.1000 -117.700 TS 40 0 11.1000 -117.700 TC 40 11.1000 -117.700 2 12 284
1972224N10244 1972 71 EP MM DIANA 1972-08-11 15:00:00 TS 11.2481 -118.328 main 1577 1574 P________PP___ EP041972 11.2424 -118.328 TS 45 0 11.2424 -118.328 TC 45 11.2709 -118.328 2 13 284
1972224N10244 1972 71 EP MM DIANA 1972-08-11 18:00:00 TS 11.4085 -119.000 50 hurdat_epa main 1602 1602 O________OP___ hurdat_epa EP041972 11.4000 -119.000 TS 50 0 11.4000 -119.000 TC 50 11.4424 -118.998 2 14 285
1972224N10244 1972 71 EP MM DIANA 1972-08-11 21:00:00 TS 11.5974 -119.693 main 1629 1629 P________PP___ EP041972 11.5924 -119.693 TS 55 0 11.5924 -119.693 TC 55 11.6176 -119.694 2 14 286
1972224N10244 1972 71 EP MM DIANA 1972-08-12 00:00:00 TS 11.8000 -120.400 60 hurdat_epa main 1660 1660 O________OO___ hurdat_epa EP041972 11.8000 -120.400 TS 60 0 11.8000 -120.400 TC 60 11.8000 -120.400 2 14 286
1972224N10244 1972 71 EP MM DIANA 1972-08-12 03:00:00 TS 11.9968 -121.106 main 1693 1693 P________PP___ EP041972 11.9998 -121.100 TS 60 0 11.9998 -121.100 TC 60 11.9848 -121.129 2 14 286
1972224N10244 1972 71 EP MM DIANA 1972-08-12 06:00:00 TS 12.1956 -121.812 60 hurdat_epa main 1729 1729 O________OP___ hurdat_epa EP041972 12.2000 -121.800 TS 60 0 12.2000 -121.800 TC 60 12.1778 -121.860 2 15 286
1972224N10244 1972 71 EP MM DIANA 1972-08-12 09:00:00 TS 12.3904 -122.536 main 1757 1757 P________PP___ EP041972 12.3925 -122.530 TS 62 0 12.3925 -122.530 TC 62 12.3818 -122.561 2 14 287
1972224N10244 1972 71 EP MM DIANA 1972-08-12 12:00:00 TS 12.6000 -123.200 65 hurdat_epa main 1786 1785 O________OO___ hurdat_epa EP041972 12.6000 -123.200 HU 65 1 12.6000 -123.200 TC 65 12.6000 -123.200 3 13 291
1972224N10244 1972 71 EP MM DIANA 1972-08-12 15:00:00 TS 12.8391 -123.737 main 1804 1803 P________PP___ EP041972 12.8423 -123.738 HU 70 1 12.8423 -123.738 TC 70 12.8265 -123.736 3 11 297
1972224N10244 1972 71 EP MM DIANA 1972-08-12 18:00:00 TS 13.0937 -124.202 75 hurdat_epa main 1815 1814 O________OP___ hurdat_epa EP041972 13.1000 -124.200 HU 75 1 13.1000 -124.200 TC 75 13.0687 -124.211 3 11 300
1972224N10244 1972 71 EP MM DIANA 1972-08-12 21:00:00 TS 13.3633 -124.681 main 1828 1828 P________PP___ EP041972 13.3725 -124.687 HU 75 1 13.3725 -124.687 TC 75 13.3266 -124.655 3 10 300
1972224N10244 1972 71 EP MM DIANA 1972-08-13 00:00:00 TS 13.6000 -125.100 75 hurdat_epa main 1842 1842 O________OO___ hurdat_epa EP041972 13.6000 -125.100 HU 75 1 13.6000 -125.100 TC 75 13.6000 -125.100 4 8 299
1972224N10244 1972 71 EP MM DIANA 1972-08-13 03:00:00 TS 13.7542 -125.419 main 1850 1850 P________PP___ EP041972 13.7223 -125.373 HU 75 1 13.7223 -125.373 TC 75 13.8815 -125.605 4 6 295
1972224N10244 1972 71 EP MM DIANA 1972-08-13 06:00:00 TS 13.8755 -125.703 75 hurdat_epa main 1866 1866 O________OP___ hurdat_epa EP041972 13.8000 -125.600 HU 75 1 13.8000 -125.600 TC 75 14.1775 -126.115 4 6 291
1972224N10244 1972 71 EP MM DIANA 1972-08-13 09:00:00 TS 13.9687 -125.996 main 1882 1882 P________PP___ EP041972 13.8397 -125.841 HU 77 1 13.8397 -125.841 TC 77 14.4847 -126.618 4 7 293
1972224N10244 1972 71 EP MM DIANA 1972-08-13 12:00:00 TS 14.1600 -126.380 80 hurdat_epa main 1900 1900 O________OO___ hurdat_epa EP041972 14.0000 -126.200 HU 80 1 14.0000 -126.200 TC 80 14.8000 -127.100 4 11 303
1972224N10244 1972 71 EP MM DIANA 1972-08-13 15:00:00 TS 14.5713 -126.950 main 1912 1912 P________PP___ EP041972 14.4327 -126.797 HU 80 1 14.4327 -126.797 TC 80 15.1256 -127.559 4 15 308
1972224N10244 1972 71 EP MM DIANA 1972-08-13 18:00:00 TS 15.0914 -127.599 80 hurdat_epa main 1916 1912 O________OP___ hurdat_epa EP041972 15.0000 -127.500 HU 80 1 15.0000 -127.500 TC 80 15.4571 -127.995 4 16 310
1972224N10244 1972 71 EP MM DIANA 1972-08-13 21:00:00 TS 15.6211 -128.237 main 1918 1914 P________PP___ EP041972 15.5801 -128.195 HU 87 2 15.5801 -128.195 TC 87 15.7851 -128.409 4 15 311
1972224N10244 1972 71 EP MM DIANA 1972-08-14 00:00:00 TS 16.1000 -128.800 95 hurdat_epa main 1922 1922 O________OO___ hurdat_epa EP041972 16.1000 -128.800 HU 95 2 16.1000 -128.800 TC 95 16.1000 -128.800 4 12 312
1972224N10244 1972 71 EP MM DIANA 1972-08-14 03:00:00 TS 16.4351 -129.188 main 1929 1922 P________PP___ EP041972 16.4446 -129.196 HU 95 2 16.4446 -129.196 TC 95 16.3970 -129.160 4 9 312
1972224N10244 1972 71 EP MM DIANA 1972-08-14 06:00:00 TS 16.6959 -129.500 95 hurdat_epa main 1930 1930 O________OP___ hurdat_epa EP041972 16.7000 -129.500 HU 95 2 16.7000 -129.500 TC 95 16.6793 -129.501 4 8 310
1972224N10244 1972 71 EP MM DIANA 1972-08-14 09:00:00 TS 16.9553 -129.842 main 1932 1932 P________PP___ EP041972 16.9574 -129.843 HU 95 2 16.9574 -129.843 TC 95 16.9470 -129.841 4 8 307
1972224N10244 1972 71 EP MM DIANA 1972-08-14 12:00:00 TS 17.2000 -130.200 95 hurdat_epa main 1950 1950 O________OO___ hurdat_epa EP041972 17.2000 -130.200 HU 95 2 17.2000 -130.200 TC 95 17.2000 -130.200 4 9 305
1972224N10244 1972 71 EP MM DIANA 1972-08-14 15:00:00 TS 17.4562 -130.587 main 1962 1962 P________PP___ EP041972 17.4574 -130.585 HU 92 2 17.4574 -130.585 TC 92 17.4514 -130.595 4 9 303
1972224N10244 1972 71 EP MM DIANA 1972-08-14 18:00:00 TS 17.6974 -131.003 90 hurdat_epa main 1981 1981 O________OP___ hurdat_epa EP041972 17.7000 -131.000 HU 90 2 17.7000 -131.000 TC 90 17.6872 -131.013 4 9 299
1972224N10244 1972 71 EP MM DIANA 1972-08-14 21:00:00 TS 17.9068 -131.444 main 2002 2002 P________PP___ EP041972 17.9074 -131.443 HU 85 2 17.9074 -131.443 TC 85 17.9044 -131.449 4 9 295
1972224N10244 1972 71 EP MM DIANA 1972-08-15 00:00:00 TS 18.1000 -131.900 80 hurdat_epa main 2032 2032 O________OO___ hurdat_epa EP041972 18.1000 -131.900 HU 80 1 18.1000 -131.900 TC 80 18.1000 -131.900 4 9 296
1972224N10244 1972 71 EP MM DIANA 1972-08-15 03:00:00 TS 18.3108 -132.335 main 2054 2054 P________PP___ EP041972 18.3148 -132.343 HU 77 1 18.3148 -132.343 TC 77 18.2945 -132.304 4 9 295
1972224N10244 1972 71 EP MM DIANA 1972-08-15 06:00:00 TS 18.4930 -132.786 75 hurdat_epa main 2086 2086 O________OP___ hurdat_epa EP041972 18.5000 -132.800 HU 75 1 18.5000 -132.800 TC 75 18.4652 -132.730 4 9 290
1972224N10244 1972 71 EP MM DIANA 1972-08-15 09:00:00 TS 18.6183 -133.241 main 2116 2116 P________PP___ EP041972 18.6220 -133.248 HU 72 1 18.6220 -133.248 TC 72 18.6034 -133.216 4 10 282
1972224N10244 1972 71 EP MM DIANA 1972-08-15 12:00:00 TS 18.7000 -133.800 70 hurdat_epa main 2164 2132 O________OO___ hurdat_epa EP041972 18.7000 -133.800 HU 70 1 18.7000 -133.800 TC 70 18.7000 -133.800 4 12 277
1972224N10244 1972 71 EP MM DIANA 1972-08-15 15:00:00 TS 18.7686 -134.548 main 2132 2048 P________PP___ EP041972 18.7726 -134.547 HU 70 1 18.7726 -134.547 TC 70 18.7527 -134.549 4 15 273
1972224N10244 1972 71 EP MM DIANA 1972-08-15 18:00:00 TS 18.7924 -135.398 70 hurdat_epa main 2038 1954 O________OP___ hurdat_epa EP041972 18.8000 -135.400 HU 70 1 18.8000 -135.400 TC 70 18.7620 -135.391 4 16 270
1972224N10244 1972 71 EP MM DIANA 1972-08-15 21:00:00 TS 18.7601 -136.271 main 1943 1861 P________PP___ EP041972 18.7651 -136.273 HU 70 1 18.7651 -136.273 TC 70 18.7401 -136.262 4 16 267
1972224N10244 1972 71 EP MM DIANA 1972-08-16 00:00:00 TS 18.7000 -137.100 70 hurdat_epa main 1861 1798 O________OO___ hurdat_epa EP041972 18.7000 -137.100 HU 70 1 18.7000 -137.100 TC 70 18.7000 -137.100 4 14 266
1972224N10244 1972 71 EP MM DIANA 1972-08-16 03:00:00 TS 18.6511 -137.775 main 1787 1726 P________PP___ EP041972 18.6494 -137.772 HU 70 1 18.6494 -137.772 TC 70 18.6579 -137.786 4 12 265
1972224N10244 1972 71 EP MM DIANA 1972-08-16 06:00:00 TS 18.6008 -138.407 70 hurdat_epa main 1726 1663 O________OP___ hurdat_epa EP041972 18.6000 -138.400 HU 70 1 18.6000 -138.400 TC 70 18.6041 -138.435 4 12 265
1972224N10244 1972 71 EP MM DIANA 1972-08-16 09:00:00 TS 18.5493 -139.074 main 1653 1580 P________PP___ EP041972 18.5496 -139.070 HU 70 1 18.5496 -139.070 TC 70 18.5484 -139.092 4 14 266
1972224N10244 1972 71 EP MM DIANA 1972-08-16 12:00:00 TS 18.5000 -139.829 70 hurdat_epa main 1580 1498 O________OO___ hurdat_epa EP041972 18.5000 -139.800 HU 70 1 18.5000 -139.800 TC 70 18.5000 -139.800 4 15 266
1972224N10244 1972 71 EP CP DIANA 1972-08-16 15:00:00 TS 18.4412 -140.671 main 1487 1403 P________PP___ EP041972 18.4423 -140.620 HU 65 1 18.4423 -140.620 TC 65 18.4593 -140.606 4 16 266
1972224N10244 1972 71 EP CP DIANA 1972-08-16 18:00:00 TS 18.3916 -141.560 60 hurdat_epa main 1393 1309 O________OP___ hurdat_epa EP041972 18.4000 -141.500 TS 60 0 18.4000 -141.500 TC 60 18.4268 -141.468 4 17 267
1972224N10244 1972 71 EP CP DIANA 1972-08-16 21:00:00 TS 18.3619 -142.444 main 1309 1215 P________PP___ EP041972 18.3846 -142.385 TS 60 0 18.3846 -142.385 TC 60 18.4058 -142.371 4 17 269
1972224N10244 1972 71 EP CP DIANA 1972-08-17 00:00:00 TS 18.3667 -143.333 60 hurdat_epa main 1215 1121 O________OO___ hurdat_epa EP041972 18.4000 -143.300 TS 60 0 18.4000 -143.300 TC 60 18.4000 -143.300 2 17 272
1972224N10244 1972 71 EP CP DIANA 1972-08-17 03:00:00 TS 18.4096 -144.260 main 1110 1025 P________PP___ EP041972 18.4496 -144.242 TS 60 0 18.4496 -144.242 TC 60 18.4242 -144.305 2 18 273
1972224N10244 1972 71 EP CP DIANA 1972-08-17 06:00:00 TS 18.4600 -145.203 60 hurdat_epa main 1015 921 O________OP___ hurdat_epa EP041972 18.5000 -145.200 TS 60 0 18.5000 -145.200 TC 60 18.4598 -145.319 2 18 272
1972224N10244 1972 71 EP CP DIANA 1972-08-17 09:00:00 TS 18.4848 -146.182 main 911 827 P________PP___ EP041972 18.5154 -146.217 TS 60 0 18.5154 -146.217 TC 60 18.4901 -146.274 2 18 271
1972224N10244 1972 71 EP CP DIANA 1972-08-17 12:00:00 TS 18.4833 -147.050 60 hurdat_epa main 827 765 O________OO___ hurdat_epa EP041972 18.5000 -147.100 TS 60 0 18.5000 -147.100 TC 60 18.5000 -147.100 2 14 269
1972224N10244 1972 71 EP CP DIANA 1972-08-17 15:00:00 TS 18.4497 -147.664 main 756 715 P________PP___ EP041972 18.4567 -147.675 TS 60 0 18.4567 -147.675 TC 60 18.4639 -147.671 2 11 266
1972224N10244 1972 71 EP CP DIANA 1972-08-17 18:00:00 TS 18.4017 -148.153 60 hurdat_epa main 704 663 O________OP___ hurdat_epa EP041972 18.4000 -148.100 TS 60 0 18.4000 -148.100 TC 60 18.4104 -148.118 2 9 265
1972224N10244 1972 71 EP CP DIANA 1972-08-17 21:00:00 TS 18.3620 -148.627 main 663 614 P________PP___ EP041972 18.3569 -148.512 TS 60 0 18.3569 -148.512 TC 60 18.3518 -148.530 2 10 265
1972224N10244 1972 71 EP CP DIANA 1972-08-18 00:00:00 TS 18.3167 -149.150 60 hurdat_epa main 604 545 O________OO___ hurdat_epa EP041972 18.3000 -149.000 TS 60 0 18.3000 -149.000 TC 60 18.3000 -149.000 2 12 264
1972224N10244 1972 71 EP CP DIANA 1972-08-18 03:00:00 TS 18.2334 -149.854 main 535 465 P________PP___ EP041972 18.1852 -149.713 TS 60 0 18.1852 -149.713 TC 60 18.2169 -149.727 2 14 264
1972224N10244 1972 71 EP CP DIANA 1972-08-18 06:00:00 TS 18.1746 -150.602 60 hurdat_epa main 465 395 O________OP___ hurdat_epa EP041972 18.1000 -150.500 TS 60 0 18.1000 -150.500 TC 60 18.1478 -150.511 2 14 268
1972224N10244 1972 71 EP CP DIANA 1972-08-18 09:00:00 TS 18.1758 -151.319 main 395 333 P________PP___ EP041972 18.0977 -151.267 TS 60 0 18.0977 -151.267 TC 60 18.1295 -151.265 2 13 274
1972224N10244 1972 71 EP CP DIANA 1972-08-18 12:00:00 TS 18.2667 -151.917 60 hurdat_epa main 333 290 O________OO___ hurdat_epa EP041972 18.2000 -151.900 TS 60 0 18.2000 -151.900 TC 60 18.2000 -151.900 2 10 287
1972224N10244 1972 71 EP CP DIANA 1972-08-18 15:00:00 TS 18.4611 -152.300 main 285 257 P________PP___ EP041972 18.4046 -152.268 TS 60 0 18.4046 -152.268 TC 60 18.4211 -152.300 2 8 308
1972224N10244 1972 71 EP CP DIANA 1972-08-18 18:00:00 TS 18.7384 -152.563 60 hurdat_epa main 247 217 O________OP___ hurdat_epa EP041972 18.7000 -152.500 TS 60 0 18.7000 -152.500 TC 60 18.7304 -152.577 2 8 321
1972224N10244 1972 71 EP CP DIANA 1972-08-18 21:00:00 TS 19.0661 -152.811 main 214 189 P________PP___ EP041972 19.0574 -152.750 TS 60 0 19.0574 -152.750 TC 60 19.0747 -152.791 2 8 324
1972224N10244 1972 71 EP CP DIANA 1972-08-19 00:00:00 TS 19.3833 -153.050 60 hurdat_epa main 178 157 O________OO___ hurdat_epa EP041972 19.4000 -153.000 TS 60 0 19.4000 -153.000 TC 60 19.4000 -153.000 2 7 317
1972224N10244 1972 71 EP CP DIANA 1972-08-19 03:00:00 TS 19.6052 -153.342 main 157 127 P________PP___ EP041972 19.6225 -153.293 TS 60 0 19.6225 -153.293 TC 60 19.6411 -153.317 2 7 306
1972224N10244 1972 71 EP CP DIANA 1972-08-19 06:00:00 TS 19.7921 -153.640 60 hurdat_epa main 130 104 O________OP___ hurdat_epa EP041972 19.8000 -153.600 TS 60 0 19.8000 -153.600 TC 60 19.8527 -153.638 2 7 305
1972224N10244 1972 71 EP CP DIANA 1972-08-19 09:00:00 TS 19.9972 -153.929 main 109 99 P________PP___ EP041972 20.0075 -153.915 TS 60 0 20.0075 -153.915 TC 60 20.0380 -153.939 2 6 307
1972224N10244 1972 71 EP CP DIANA 1972-08-19 12:00:00 TS 20.1833 -154.183 60 hurdat_epa main 99 85 O________OO___ hurdat_epa EP041972 20.2000 -154.200 TS 60 0 20.2000 -154.200 TC 60 20.2000 -154.200 2 6 308
1972224N10244 1972 71 EP CP DIANA 1972-08-19 15:00:00 TS 20.3362 -154.389 main 85 83 P________PP___ EP041972 20.3650 -154.430 TS 52 0 20.3650 -154.430 TC 52 20.3423 -154.405 2 4 309
1972224N10244 1972 71 EP CP DIANA 1972-08-19 18:00:00 TS 20.4531 -154.531 45 hurdat_epa main 91 83 O________OP___ hurdat_epa EP041972 20.5000 -154.600 TS 45 0 20.5000 -154.600 TC 45 20.4698 -154.563 2 3 314
1972224N10244 1972 71 EP CP DIANA 1972-08-19 21:00:00 TS 20.5453 -154.615 main 83 83 P________PP___ EP041972 20.6225 -154.715 TS 45 0 20.6075 -154.715 TC 45 20.5874 -154.689 2 2 322
1972224N10244 1972 71 EP CP DIANA 1972-08-20 00:00:00 TS 20.6111 -154.667 45 hurdat_epa main 84 84 O________OO___ hurdat_epa EP041972 20.7000 -154.800 TS 45 0 20.7000 -154.800 TC 45 20.7000 -154.800 2 1 295
1972224N10244 1972 71 EP CP DIANA 1972-08-20 03:00:00 NR 20.5925 -154.728 main 84 74 P_____________ EP041972 20.6924 -154.878 TS 45 0 TC 2 3 286
1972224N10244 1972 71 EP CP DIANA 1972-08-20 06:00:00 NR 20.7000 -155.000 45 cphc main 81 78 O_____________ cphc 20.7000 -155.000 45 2 5 297
1972224N10244 1972 71 EP CP DIANA 1972-08-20 09:00:00 NR 20.8424 -155.243 main 83 56 P_____________ 20.8275 -155.220 40 2 6 303
1972224N10244 1972 71 EP CP DIANA 1972-08-20 12:00:00 NR 21.0000 -155.500 35 cphc main 56 39 O_____________ cphc 21.0000 -155.500 35 6 301
1972224N10244 1972 71 EP CP DIANA 1972-08-20 15:00:00 NR 21.1526 -155.790 main 49 44 P_____________ 21.1576 -155.797 30 6 298
1972224N10244 1972 71 EP CP DIANA 1972-08-20 18:00:00 NR 21.3000 -156.100 25 1005 cphc main 55 O_____________ cphc 21.3000 -156.100 25 1005 6 297

IBTrACS Databaseについて

本データベースは、米国NOAAが公開する1842年以降の世界の熱帯低気圧のベストトラックデータアーカイブInternational Best Track Archive for Climate Stewardship (IBTrACS)を、ウェブで閲覧しやすい形式に変換したものです。

最終更新日:2021-12-03